地図

経路データ

SID SEASON NUMBER BASIN SUBBASIN NAME ISO_TIME NATURE LAT LON WMO_WIND WMO_PRES WMO_AGENCY TRACK_TYPE DIST2LAND LANDFALL IFLAG USA_AGENCY USA_ATCF_ID USA_LAT USA_LON USA_RECORD USA_STATUS USA_WIND USA_PRES USA_SSHS USA_R34_NE USA_R34_SE USA_R34_SW USA_R34_NW USA_R50_NE USA_R50_SE USA_R50_SW USA_R50_NW USA_R64_NE USA_R64_SE USA_R64_SW USA_R64_NW USA_POCI USA_ROCI USA_RMW USA_EYE TOKYO_LAT TOKYO_LON TOKYO_GRADE TOKYO_WIND TOKYO_PRES TOKYO_R50_DIR TOKYO_R50_LONG TOKYO_R50_SHORT TOKYO_R30_DIR TOKYO_R30_LONG TOKYO_R30_SHORT TOKYO_LAND CMA_LAT CMA_LON CMA_CAT CMA_WIND CMA_PRES HKO_LAT HKO_LON HKO_CAT HKO_WIND HKO_PRES NEWDELHI_LAT NEWDELHI_LON NEWDELHI_GRADE NEWDELHI_WIND NEWDELHI_PRES NEWDELHI_CI NEWDELHI_DP NEWDELHI_POCI REUNION_LAT REUNION_LON REUNION_TYPE REUNION_WIND REUNION_PRES REUNION_TNUM REUNION_CI REUNION_RMW REUNION_R34_NE REUNION_R34_SE REUNION_R34_SW REUNION_R34_NW REUNION_R50_NE REUNION_R50_SE REUNION_R50_SW REUNION_R50_NW REUNION_R64_NE REUNION_R64_SE REUNION_R64_SW REUNION_R64_NW BOM_LAT BOM_LON BOM_TYPE BOM_WIND BOM_PRES BOM_TNUM BOM_CI BOM_RMW BOM_R34_NE BOM_R34_SE BOM_R34_SW BOM_R34_NW BOM_R50_NE BOM_R50_SE BOM_R50_SW BOM_R50_NW BOM_R64_NE BOM_R64_SE BOM_R64_SW BOM_R64_NW BOM_ROCI BOM_POCI BOM_EYE BOM_POS_METHOD BOM_PRES_METHOD NADI_LAT NADI_LON NADI_CAT NADI_WIND NADI_PRES WELLINGTON_LAT WELLINGTON_LON WELLINGTON_WIND WELLINGTON_PRES DS824_LAT DS824_LON DS824_STAGE DS824_WIND DS824_PRES TD9636_LAT TD9636_LON TD9636_STAGE TD9636_WIND TD9636_PRES TD9635_LAT TD9635_LON TD9635_WIND TD9635_PRES TD9635_ROCI NEUMANN_LAT NEUMANN_LON NEUMANN_CLASS NEUMANN_WIND NEUMANN_PRES MLC_LAT MLC_LON MLC_CLASS MLC_WIND MLC_PRES USA_GUST BOM_GUST BOM_GUST_PER REUNION_GUST REUNION_GUST_PER USA_SEAHGT USA_SEARAD_NE USA_SEARAD_SE USA_SEARAD_SW USA_SEARAD_NW STORM_SPEED STORM_DIR
1897042S12064 1897 7 SI MM NOT_NAMED 1897-02-11 06:00:00 NR -12.2000 64.1000 reunion main 1117 1098 _____O________ -1 -12.2000 64.1000 99 9.90000 5 269
1897042S12064 1897 7 SI MM NOT_NAMED 1897-02-11 09:00:00 NR -12.2066 63.8231 main 1098 1085 _____P________ -1 -12.2066 63.8231 99 5 269
1897042S12064 1897 7 SI MM NOT_NAMED 1897-02-11 12:00:00 NR -12.2136 63.5417 main 1079 1067 _____P________ -1 -12.2136 63.5417 99 6 268
1897042S12064 1897 7 SI MM NOT_NAMED 1897-02-11 15:00:00 NR -12.2217 63.2511 main 1067 1049 _____P________ -1 -12.2217 63.2511 99 6 268
1897042S12064 1897 7 SI MM NOT_NAMED 1897-02-11 18:00:00 NR -12.2315 62.9468 main 1043 1027 _____P________ -1 -12.2315 62.9468 99 6 268
1897042S12064 1897 7 SI MM NOT_NAMED 1897-02-11 21:00:00 NR -12.2436 62.6242 main 1027 1001 _____P________ -1 -12.2436 62.6242 99 7 268
1897042S12064 1897 7 SI MM NOT_NAMED 1897-02-12 00:00:00 NR -12.2587 62.2786 main 1001 981 _____P________ -1 -12.2587 62.2786 99 7 267
1897042S12064 1897 7 SI MM NOT_NAMED 1897-02-12 03:00:00 NR -12.2773 61.9054 main 981 962 _____P________ -1 -12.2773 61.9054 99 8 267
1897042S12064 1897 7 SI MM NOT_NAMED 1897-02-12 06:00:00 NR -12.3000 61.5000 reunion main 962 945 _____O________ -1 -12.3000 61.5000 99 9.90000 8 267
1897042S12064 1897 7 SI MM NOT_NAMED 1897-02-12 09:00:00 NR -12.3271 61.0601 main 945 915 _____P________ -1 -12.3271 61.0601 99 9 266
1897042S12064 1897 7 SI MM NOT_NAMED 1897-02-12 12:00:00 NR -12.3581 60.5935 main 915 899 _____P________ -1 -12.3581 60.5935 99 9 266
1897042S12064 1897 7 SI MM NOT_NAMED 1897-02-12 15:00:00 NR -12.3925 60.1101 main 899 885 _____P________ -1 -12.3925 60.1101 99 10 266
1897042S12064 1897 7 SI MM NOT_NAMED 1897-02-12 18:00:00 NR -12.4297 59.6203 main 885 865 _____P________ -1 -12.4297 59.6203 99 10 265
1897042S12064 1897 7 SI MM NOT_NAMED 1897-02-12 21:00:00 NR -12.4695 59.1342 main 863 857 _____P________ -1 -12.4695 59.1342 99 9 265
1897042S12064 1897 7 SI MM NOT_NAMED 1897-02-13 00:00:00 NR -12.5113 58.6620 main 857 841 _____P________ -1 -12.5113 58.6620 99 9 265
1897042S12064 1897 7 SI MM NOT_NAMED 1897-02-13 03:00:00 NR -12.5548 58.2139 main 841 839 _____P________ -1 -12.5548 58.2139 99 8 264
1897042S12064 1897 7 SI MM NOT_NAMED 1897-02-13 06:00:00 NR -12.6000 57.8000 reunion main 839 809 _____O________ -1 -12.6000 57.8000 99 9.90000 8 263
1897042S12064 1897 7 SI MM NOT_NAMED 1897-02-13 09:00:00 NR -12.6444 57.4477 main 799 765 _____P________ -1 -12.6444 57.4477 99 7 262
1897042S12064 1897 7 SI MM NOT_NAMED 1897-02-13 12:00:00 NR -12.6913 57.1260 main 765 735 _____P________ -1 -12.6913 57.1260 99 6 261
1897042S12064 1897 7 SI MM NOT_NAMED 1897-02-13 15:00:00 NR -12.7401 56.8308 main 735 711 _____P________ -1 -12.7401 56.8308 99 6 260
1897042S12064 1897 7 SI MM NOT_NAMED 1897-02-13 18:00:00 NR -12.7906 56.5576 main 711 680 _____P________ -1 -12.7906 56.5576 99 5 259
1897042S12064 1897 7 SI MM NOT_NAMED 1897-02-13 21:00:00 NR -12.8423 56.3023 main 680 656 _____P________ -1 -12.8423 56.3023 99 5 258
1897042S12064 1897 7 SI MM NOT_NAMED 1897-02-14 00:00:00 NR -12.8948 56.0604 main 656 625 _____P________ -1 -12.8948 56.0604 99 5 257
1897042S12064 1897 7 SI MM NOT_NAMED 1897-02-14 03:00:00 NR -12.9475 55.8277 main 625 601 _____P________ -1 -12.9475 55.8277 99 5 257
1897042S12064 1897 7 SI MM NOT_NAMED 1897-02-14 06:00:00 NR -13.0000 55.6000 reunion main 601 580 _____O________ -1 -13.0000 55.6000 99 9.90000 5 259
1897042S12064 1897 7 SI MM NOT_NAMED 1897-02-14 09:00:00 NR -13.0363 55.3542 main 580 546 _____P________ -1 -13.0363 55.3542 99 5 261
1897042S12064 1897 7 SI MM NOT_NAMED 1897-02-14 12:00:00 NR -13.0711 55.1167 main 546 525 _____P________ -1 -13.0711 55.1167 99 5 261
1897042S12064 1897 7 SI MM NOT_NAMED 1897-02-14 15:00:00 NR -13.1071 54.8863 main 525 503 _____P________ -1 -13.1071 54.8863 99 5 260
1897042S12064 1897 7 SI MM NOT_NAMED 1897-02-14 18:00:00 NR -13.1469 54.6618 main 503 480 _____P________ -1 -13.1469 54.6618 99 4 259
1897042S12064 1897 7 SI MM NOT_NAMED 1897-02-14 21:00:00 NR -13.1934 54.4421 main 470 448 _____P________ -1 -13.1934 54.4421 99 4 256
1897042S12064 1897 7 SI MM NOT_NAMED 1897-02-15 00:00:00 NR -13.2493 54.2260 main 448 425 _____P________ -1 -13.2493 54.2260 99 4 254
1897042S12064 1897 7 SI MM NOT_NAMED 1897-02-15 03:00:00 NR -13.3173 54.0124 main 425 402 _____P________ -1 -13.3173 54.0124 99 4 250
1897042S12064 1897 7 SI MM NOT_NAMED 1897-02-15 06:00:00 NR -13.4000 53.8000 reunion main 402 379 _____O________ -1 -13.4000 53.8000 99 9.90000 5 250
1897042S12064 1897 7 SI MM NOT_NAMED 1897-02-15 09:00:00 NR -13.4782 53.5675 main 379 346 _____P________ -1 -13.4782 53.5675 99 5 250
1897042S12064 1897 7 SI MM NOT_NAMED 1897-02-15 12:00:00 NR -13.5679 53.3351 main 346 324 _____P________ -1 -13.5679 53.3351 99 5 247
1897042S12064 1897 7 SI MM NOT_NAMED 1897-02-15 15:00:00 NR -13.6719 53.1058 main 324 302 _____P________ -1 -13.6719 53.1058 99 5 243
1897042S12064 1897 7 SI MM NOT_NAMED 1897-02-15 18:00:00 NR -13.7927 52.8822 main 302 278 _____P________ -1 -13.7927 52.8822 99 5 239
1897042S12064 1897 7 SI MM NOT_NAMED 1897-02-15 21:00:00 NR -13.9333 52.6671 main 278 247 _____P________ -1 -13.9333 52.6671 99 5 233
1897042S12064 1897 7 SI MM NOT_NAMED 1897-02-16 00:00:00 NR -14.0961 52.4632 main 247 218 _____P________ -1 -14.0961 52.4632 99 5 227
1897042S12064 1897 7 SI MM NOT_NAMED 1897-02-16 03:00:00 NR -14.2841 52.2732 main 218 189 _____P________ -1 -14.2841 52.2732 99 5 221
1897042S12064 1897 7 SI MM NOT_NAMED 1897-02-16 06:00:00 NR -14.5000 52.1000 reunion main 189 160 _____O________ -1 -14.5000 52.1000 99 9.90000 6 215
1897042S12064 1897 7 SI MM NOT_NAMED 1897-02-16 09:00:00 NR -14.7530 51.9371 main 156 141 _____P________ -1 -14.7530 51.9371 99 6 209
1897042S12064 1897 7 SI MM NOT_NAMED 1897-02-16 12:00:00 NR -15.0363 51.7895 main 141 128 _____P________ -1 -15.0363 51.7895 99 7 205
1897042S12064 1897 7 SI MM NOT_NAMED 1897-02-16 15:00:00 NR -15.3433 51.6566 main 128 109 _____P________ -1 -15.3433 51.6566 99 7 201
1897042S12064 1897 7 SI MM NOT_NAMED 1897-02-16 18:00:00 NR -15.6672 51.5381 main 112 111 _____P________ -1 -15.6672 51.5381 99 7 198
1897042S12064 1897 7 SI MM NOT_NAMED 1897-02-16 21:00:00 NR -16.0016 51.4336 main 116 116 _____P________ -1 -16.0016 51.4336 99 7 196
1897042S12064 1897 7 SI MM NOT_NAMED 1897-02-17 00:00:00 NR -16.3396 51.3426 main 120 120 _____P________ -1 -16.3396 51.3426 99 7 193
1897042S12064 1897 7 SI MM NOT_NAMED 1897-02-17 03:00:00 NR -16.6746 51.2649 main 141 139 _____P________ -1 -16.6746 51.2649 99 7 192
1897042S12064 1897 7 SI MM NOT_NAMED 1897-02-17 06:00:00 NR -17.0000 51.2000 reunion main 150 142 _____O________ -1 -17.0000 51.2000 99 9.90000 6 195
1897042S12064 1897 7 SI MM NOT_NAMED 1897-02-17 09:00:00 NR -17.2467 51.0996 main 145 144 _____P________ -1 -17.2467 51.0996 99 5 200
1897042S12064 1897 7 SI MM NOT_NAMED 1897-02-17 12:00:00 NR -17.4819 51.0089 main 149 148 _____P________ -1 -17.4819 51.0089 99 5 198
1897042S12064 1897 7 SI MM NOT_NAMED 1897-02-17 15:00:00 NR -17.7154 50.9337 main 148 148 _____P________ -1 -17.7154 50.9337 99 5 195
1897042S12064 1897 7 SI MM NOT_NAMED 1897-02-17 18:00:00 NR -17.9569 50.8800 main 151 151 _____P________ -1 -17.9569 50.8800 99 5 189
1897042S12064 1897 7 SI MM NOT_NAMED 1897-02-17 21:00:00 NR -18.2163 50.8537 main 158 158 _____P________ -1 -18.2163 50.8537 99 6 182
1897042S12064 1897 7 SI MM NOT_NAMED 1897-02-18 00:00:00 NR -18.5034 50.8609 main 161 161 _____P________ -1 -18.5034 50.8609 99 6 175
1897042S12064 1897 7 SI MM NOT_NAMED 1897-02-18 03:00:00 NR -18.8281 50.9076 main 171 171 _____P________ -1 -18.8281 50.9076 99 7 169
1897042S12064 1897 7 SI MM NOT_NAMED 1897-02-18 06:00:00 NR -19.2000 51.0000 reunion main 197 197 _____O________ -1 -19.2000 51.0000 99 9.90000 9 166
1897042S12064 1897 7 SI MM NOT_NAMED 1897-02-18 09:00:00 NR -19.6745 51.1367 main 223 223 _____P________ -1 -19.6745 51.1367 99 10 163
1897042S12064 1897 7 SI MM NOT_NAMED 1897-02-18 12:00:00 NR -20.1988 51.3200 main 261 261 _____P________ -1 -20.1988 51.3200 99 12 161
1897042S12064 1897 7 SI MM NOT_NAMED 1897-02-18 15:00:00 NR -20.7587 51.5449 main 295 295 _____P________ -1 -20.7587 51.5449 99 12 158
1897042S12064 1897 7 SI MM NOT_NAMED 1897-02-18 18:00:00 NR -21.3402 51.8059 main 344 332 _____P________ -1 -21.3402 51.8059 99 13 156
1897042S12064 1897 7 SI MM NOT_NAMED 1897-02-18 21:00:00 NR -21.9291 52.0976 main 332 323 _____P________ -1 -21.9291 52.0976 99 13 154
1897042S12064 1897 7 SI MM NOT_NAMED 1897-02-19 00:00:00 NR -22.5114 52.4144 main 327 322 _____P________ -1 -22.5114 52.4144 99 13 152
1897042S12064 1897 7 SI MM NOT_NAMED 1897-02-19 03:00:00 NR -23.0730 52.7506 main 326 326 _____P________ -1 -23.0730 52.7506 99 13 150
1897042S12064 1897 7 SI MM NOT_NAMED 1897-02-19 06:00:00 NR -23.6000 53.1000 reunion main 342 342 _____O________ -1 -23.6000 53.1000 99 9.90000 11 147
1897042S12064 1897 7 SI MM NOT_NAMED 1897-02-19 09:00:00 NR -24.0340 53.4259 main 359 359 _____P________ -1 -24.0340 53.4259 99 10 144
1897042S12064 1897 7 SI MM NOT_NAMED 1897-02-19 12:00:00 NR -24.4377 53.7694 main 379 379 _____P________ -1 -24.4377 53.7694 99 10 141
1897042S12064 1897 7 SI MM NOT_NAMED 1897-02-19 15:00:00 NR -24.8179 54.1285 main 409 409 _____P________ -1 -24.8179 54.1285 99 10 138
1897042S12064 1897 7 SI MM NOT_NAMED 1897-02-19 18:00:00 NR -25.1813 54.5016 main 439 436 _____P________ -1 -25.1813 54.5016 99 10 136
1897042S12064 1897 7 SI MM NOT_NAMED 1897-02-19 21:00:00 NR -25.5345 54.8870 main 463 463 _____P________ -1 -25.5345 54.8870 99 10 135
1897042S12064 1897 7 SI MM NOT_NAMED 1897-02-20 00:00:00 NR -25.8842 55.2829 main 503 503 _____P________ -1 -25.8842 55.2829 99 10 134
1897042S12064 1897 7 SI MM NOT_NAMED 1897-02-20 03:00:00 NR -26.2371 55.6877 main 536 536 _____P________ -1 -26.2371 55.6877 99 10 134
1897042S12064 1897 7 SI MM NOT_NAMED 1897-02-20 06:00:00 NR -26.6000 56.1000 reunion main 583 583 _____O________ -1 -26.6000 56.1000 99 9.90000 10 134
1897042S12064 1897 7 SI MM NOT_NAMED 1897-02-20 09:00:00 NR -26.9503 56.5084 main 632 632 _____P________ -1 -26.9503 56.5084 99 10 134
1897042S12064 1897 7 SI MM NOT_NAMED 1897-02-20 12:00:00 NR -27.3012 56.9257 main 672 672 _____P________ -1 -27.3012 56.9257 99 10 133
1897042S12064 1897 7 SI MM NOT_NAMED 1897-02-20 15:00:00 NR -27.6612 57.3515 main 727 727 _____P________ -1 -27.6612 57.3515 99 11 134
1897042S12064 1897 7 SI MM NOT_NAMED 1897-02-20 18:00:00 NR -28.0389 57.7853 main 770 770 _____P________ -1 -28.0389 57.7853 99 11 135
1897042S12064 1897 7 SI MM NOT_NAMED 1897-02-20 21:00:00 NR -28.4430 58.2270 main 824 824 _____P________ -1 -28.4430 58.2270 99 12 137
1897042S12064 1897 7 SI MM NOT_NAMED 1897-02-21 00:00:00 NR -28.8820 58.6765 main 893 893 _____P________ -1 -28.8820 58.6765 99 12 139
1897042S12064 1897 7 SI MM NOT_NAMED 1897-02-21 03:00:00 NR -29.3648 59.1340 main 960 960 _____P________ -1 -29.3648 59.1340 99 13 142
1897042S12064 1897 7 SI MM NOT_NAMED 1897-02-21 06:00:00 NR -29.9000 59.6000 reunion main 1030 1030 _____O________ -1 -29.9000 59.6000 99 9.90000 15 145
1897042S12064 1897 7 SI MM NOT_NAMED 1897-02-21 09:00:00 NR -30.5947 60.1373 main 1121 1121 _____P________ -1 -30.5947 60.1373 99 17 147
1897042S12064 1897 7 SI MM NOT_NAMED 1897-02-21 12:00:00 NR -31.3529 60.6965 main 1226 1226 _____P________ -1 -31.3529 60.6965 99 18 148
1897042S12064 1897 7 SI MM NOT_NAMED 1897-02-21 15:00:00 NR -32.1471 61.2645 main 1321 1321 _____P________ -1 -32.1471 61.2645 99 19 149
1897042S12064 1897 7 SI MM NOT_NAMED 1897-02-21 18:00:00 NR -32.9497 61.8274 main 1422 1422 _____P________ -1 -32.9497 61.8274 99 18 150
1897042S12064 1897 7 SI MM NOT_NAMED 1897-02-21 21:00:00 NR -33.7332 62.3696 main 1526 1526 _____P________ -1 -33.7332 62.3696 99 18 150
1897042S12064 1897 7 SI MM NOT_NAMED 1897-02-22 00:00:00 NR -34.4706 62.8744 main 1627 1591 _____P________ -1 -34.4706 62.8744 99 16 151
1897042S12064 1897 7 SI MM NOT_NAMED 1897-02-22 03:00:00 NR -35.1350 63.3241 main 1591 1517 _____P________ -1 -35.1350 63.3241 99 14 151
1897042S12064 1897 7 SI MM NOT_NAMED 1897-02-22 06:00:00 NR -35.7000 63.7000 reunion main 1517 1467 _____O________ -1 -35.7000 63.7000 99 9.90000 11 152
1897042S12064 1897 7 SI MM NOT_NAMED 1897-02-22 09:00:00 NR -36.1465 63.9876 main 1467 1419 _____P________ -1 -36.1465 63.9876 99 9 153
1897042S12064 1897 7 SI MM NOT_NAMED 1897-02-22 12:00:00 NR -36.4839 64.1917 main 1419 1395 _____P________ -1 -36.4839 64.1917 99 6 155
1897042S12064 1897 7 SI MM NOT_NAMED 1897-02-22 15:00:00 NR -36.7281 64.3231 main 1395 1372 _____P________ -1 -36.7281 64.3231 99 4 158
1897042S12064 1897 7 SI MM NOT_NAMED 1897-02-22 18:00:00 NR -36.8950 64.3930 main 1372 1361 _____P________ -1 -36.8950 64.3930 99 3 167
1897042S12064 1897 7 SI MM NOT_NAMED 1897-02-22 21:00:00 NR -37.0002 64.4134 main 1361 1350 _____P________ -1 -37.0002 64.4134 99 2 0
1897042S12064 1897 7 SI MM NOT_NAMED 1897-02-23 00:00:00 NR -37.0592 64.3964 main 1350 1350 _____P________ -1 -37.0592 64.3964 99 1 206
1897042S12064 1897 7 SI MM NOT_NAMED 1897-02-23 03:00:00 NR -37.0873 64.3545 main 1350 1350 _____P________ -1 -37.0873 64.3545 99 1 243
1897042S12064 1897 7 SI MM NOT_NAMED 1897-02-23 06:00:00 NR -37.1000 64.3000 reunion main 1352 _____O________ -1 -37.1000 64.3000 99 9.90000 1 251

IBTrACS Databaseについて

本データベースは、米国NOAAが公開する1842年以降の世界の熱帯低気圧のベストトラックデータアーカイブInternational Best Track Archive for Climate Stewardship (IBTrACS)を、ウェブで閲覧しやすい形式に変換したものです。

最終更新日:2021-11-26